sensor_id;sensor_type;location;lat;lon;timestamp;temperature;humidity
83683;DHT22;73663;51.298;5.802;2024-01-30T00:02:32;13.10;53.60
83683;DHT22;73663;51.298;5.802;2024-01-30T00:07:32;13.10;53.70
83683;DHT22;73663;51.298;5.802;2024-01-30T00:12:33;13.10;53.60
83683;DHT22;73663;51.298;5.802;2024-01-30T00:17:34;13.10;53.60
83683;DHT22;73663;51.298;5.802;2024-01-30T00:22:34;13.20;53.70
83683;DHT22;73663;51.298;5.802;2024-01-30T00:27:35;13.20;53.70
83683;DHT22;73663;51.298;5.802;2024-01-30T00:32:36;13.20;53.70
83683;DHT22;73663;51.298;5.802;2024-01-30T00:37:36;13.20;53.70
83683;DHT22;73663;51.298;5.802;2024-01-30T00:42:37;13.10;53.70
83683;DHT22;73663;51.298;5.802;2024-01-30T00:47:37;13.10;53.70
83683;DHT22;73663;51.298;5.802;2024-01-30T00:52:38;13.10;53.80
83683;DHT22;73663;51.298;5.802;2024-01-30T00:57:39;13.10;53.80
83683;DHT22;73663;51.298;5.802;2024-01-30T01:02:40;13.10;54.00
83683;DHT22;73663;51.298;5.802;2024-01-30T01:07:40;13.10;53.90
83683;DHT22;73663;51.298;5.802;2024-01-30T01:12:43;13.10;54.00
83683;DHT22;73663;51.298;5.802;2024-01-30T01:17:43;13.30;54.00
83683;DHT22;73663;51.298;5.802;2024-01-30T01:22:44;13.30;54.00
83683;DHT22;73663;51.298;5.802;2024-01-30T01:27:44;13.30;54.00
83683;DHT22;73663;51.298;5.802;2024-01-30T01:32:51;13.30;54.00
83683;DHT22;73663;51.298;5.802;2024-01-30T01:38:02;13.30;54.00
83683;DHT22;73663;51.298;5.802;2024-01-30T01:43:03;13.30;54.00
83683;DHT22;73663;51.298;5.802;2024-01-30T01:48:05;13.30;54.00
83683;DHT22;73663;51.298;5.802;2024-01-30T01:53:07;13.20;54.00
83683;DHT22;73663;51.298;5.802;2024-01-30T01:58:09;13.20;54.00
83683;DHT22;73663;51.298;5.802;2024-01-30T02:03:10;13.10;53.90
83683;DHT22;73663;51.298;5.802;2024-01-30T02:08:12;13.10;54.00
83683;DHT22;73663;51.298;5.802;2024-01-30T02:13:13;13.10;54.00
83683;DHT22;73663;51.298;5.802;2024-01-30T02:18:13;13.00;54.00
83683;DHT22;73663;51.298;5.802;2024-01-30T02:23:16;13.00;54.00
83683;DHT22;73663;51.298;5.802;2024-01-30T02:28:16;13.10;54.00
83683;DHT22;73663;51.298;5.802;2024-01-30T02:33:17;13.10;54.00
83683;DHT22;73663;51.298;5.802;2024-01-30T02:38:17;13.10;54.10
83683;DHT22;73663;51.298;5.802;2024-01-30T02:43:18;13.10;54.10
83683;DHT22;73663;51.298;5.802;2024-01-30T02:48:19;13.10;54.20
83683;DHT22;73663;51.298;5.802;2024-01-30T02:53:20;13.10;54.20
83683;DHT22;73663;51.298;5.802;2024-01-30T02:58:20;13.10;54.30
83683;DHT22;73663;51.298;5.802;2024-01-30T03:03:21;13.10;54.30
83683;DHT22;73663;51.298;5.802;2024-01-30T03:08:21;13.20;54.20
83683;DHT22;73663;51.298;5.802;2024-01-30T03:13:22;13.20;54.30
83683;DHT22;73663;51.298;5.802;2024-01-30T03:18:25;13.30;54.30
83683;DHT22;73663;51.298;5.802;2024-01-30T03:23:25;13.30;54.30
83683;DHT22;73663;51.298;5.802;2024-01-30T03:28:26;13.30;54.30
83683;DHT22;73663;51.298;5.802;2024-01-30T03:33:26;13.30;54.30
83683;DHT22;73663;51.298;5.802;2024-01-30T03:38:28;13.30;54.30
83683;DHT22;73663;51.298;5.802;2024-01-30T03:43:29;13.30;54.30
83683;DHT22;73663;51.298;5.802;2024-01-30T03:48:29;13.30;54.40
83683;DHT22;73663;51.298;5.802;2024-01-30T03:53:30;13.30;54.30
83683;DHT22;73663;51.298;5.802;2024-01-30T03:58:31;13.40;54.40
83683;DHT22;73663;51.298;5.802;2024-01-30T04:03:31;13.50;54.40
83683;DHT22;73663;51.298;5.802;2024-01-30T04:08:32;13.50;54.50
83683;DHT22;73663;51.298;5.802;2024-01-30T04:13:33;13.50;54.50
83683;DHT22;73663;51.298;5.802;2024-01-30T04:18:33;13.50;54.50
83683;DHT22;73663;51.298;5.802;2024-01-30T04:23:34;13.50;54.40
83683;DHT22;73663;51.298;5.802;2024-01-30T04:28:35;13.50;54.40
83683;DHT22;73663;51.298;5.802;2024-01-30T04:33:35;13.50;54.40
83683;DHT22;73663;51.298;5.802;2024-01-30T04:38:37;13.50;54.40
83683;DHT22;73663;51.298;5.802;2024-01-30T04:43:37;13.40;54.40
83683;DHT22;73663;51.298;5.802;2024-01-30T04:48:38;13.30;54.40
83683;DHT22;73663;51.298;5.802;2024-01-30T04:53:39;13.30;54.40
83683;DHT22;73663;51.298;5.802;2024-01-30T04:58:40;13.30;54.40
83683;DHT22;73663;51.298;5.802;2024-01-30T05:03:40;13.40;54.40
83683;DHT22;73663;51.298;5.802;2024-01-30T05:08:41;13.40;54.40
83683;DHT22;73663;51.298;5.802;2024-01-30T05:13:41;13.40;54.50
83683;DHT22;73663;51.298;5.802;2024-01-30T05:18:42;13.50;54.60
83683;DHT22;73663;51.298;5.802;2024-01-30T05:23:42;13.50;54.70
83683;DHT22;73663;51.298;5.802;2024-01-30T05:28:43;13.60;54.70
83683;DHT22;73663;51.298;5.802;2024-01-30T05:33:46;13.60;54.70
83683;DHT22;73663;51.298;5.802;2024-01-30T05:38:47;13.70;54.70
83683;DHT22;73663;51.298;5.802;2024-01-30T05:43:47;13.80;54.90
83683;DHT22;73663;51.298;5.802;2024-01-30T05:48:48;13.90;55.00
83683;DHT22;73663;51.298;5.802;2024-01-30T05:53:49;14.00;54.90
83683;DHT22;73663;51.298;5.802;2024-01-30T05:58:49;14.10;55.00
83683;DHT22;73663;51.298;5.802;2024-01-30T06:03:53;14.20;54.90
83683;DHT22;73663;51.298;5.802;2024-01-30T06:08:54;14.20;55.00
83683;DHT22;73663;51.298;5.802;2024-01-30T06:13:56;14.20;54.90
83683;DHT22;73663;51.298;5.802;2024-01-30T06:18:57;14.30;55.00
83683;DHT22;73663;51.298;5.802;2024-01-30T06:23:57;14.30;55.00
83683;DHT22;73663;51.298;5.802;2024-01-30T06:28:58;14.30;55.00
83683;DHT22;73663;51.298;5.802;2024-01-30T06:33:58;14.30;54.90
83683;DHT22;73663;51.298;5.802;2024-01-30T06:38:59;14.30;54.90
83683;DHT22;73663;51.298;5.802;2024-01-30T06:44:01;14.30;54.90
83683;DHT22;73663;51.298;5.802;2024-01-30T06:49:02;14.30;55.00
83683;DHT22;73663;51.298;5.802;2024-01-30T06:54:03;14.40;55.00
83683;DHT22;73663;51.298;5.802;2024-01-30T06:59:03;14.50;55.00
83683;DHT22;73663;51.298;5.802;2024-01-30T07:04:04;14.60;55.10
83683;DHT22;73663;51.298;5.802;2024-01-30T07:09:05;14.70;55.10
83683;DHT22;73663;51.298;5.802;2024-01-30T07:14:05;14.80;55.20
83683;DHT22;73663;51.298;5.802;2024-01-30T07:19:06;15.00;55.30
83683;DHT22;73663;51.298;5.802;2024-01-30T07:24:09;15.20;55.30
83683;DHT22;73663;51.298;5.802;2024-01-30T07:29:10;15.30;55.30
83683;DHT22;73663;51.298;5.802;2024-01-30T07:34:11;15.40;55.30
83683;DHT22;73663;51.298;5.802;2024-01-30T07:39:12;15.50;55.30
83683;DHT22;73663;51.298;5.802;2024-01-30T07:44:12;15.60;55.20
83683;DHT22;73663;51.298;5.802;2024-01-30T07:49:13;15.60;55.20
83683;DHT22;73663;51.298;5.802;2024-01-30T07:54:14;15.60;55.20
83683;DHT22;73663;51.298;5.802;2024-01-30T07:59:15;15.70;55.20
83683;DHT22;73663;51.298;5.802;2024-01-30T08:04:15;15.60;55.20
83683;DHT22;73663;51.298;5.802;2024-01-30T08:09:16;15.70;55.20
83683;DHT22;73663;51.298;5.802;2024-01-30T08:14:17;15.80;55.20
83683;DHT22;73663;51.298;5.802;2024-01-30T08:19:18;15.80;55.20
83683;DHT22;73663;51.298;5.802;2024-01-30T08:24:19;15.80;55.30
83683;DHT22;73663;51.298;5.802;2024-01-30T08:29:19;15.90;55.30
83683;DHT22;73663;51.298;5.802;2024-01-30T08:34:20;16.00;55.30
83683;DHT22;73663;51.298;5.802;2024-01-30T08:39:20;16.10;55.30
83683;DHT22;73663;51.298;5.802;2024-01-30T08:44:21;16.20;55.30
83683;DHT22;73663;51.298;5.802;2024-01-30T08:49:22;16.30;55.40
83683;DHT22;73663;51.298;5.802;2024-01-30T08:54:23;16.40;55.40
83683;DHT22;73663;51.298;5.802;2024-01-30T08:59:24;16.50;55.40
83683;DHT22;73663;51.298;5.802;2024-01-30T09:04:25;16.60;55.40
83683;DHT22;73663;51.298;5.802;2024-01-30T09:09:26;16.70;55.30
83683;DHT22;73663;51.298;5.802;2024-01-30T09:14:26;16.70;55.30
83683;DHT22;73663;51.298;5.802;2024-01-30T09:19:27;16.70;55.30
83683;DHT22;73663;51.298;5.802;2024-01-30T09:24:27;16.70;55.30
83683;DHT22;73663;51.298;5.802;2024-01-30T09:29:28;16.70;55.40
83683;DHT22;73663;51.298;5.802;2024-01-30T09:34:29;16.70;55.30
83683;DHT22;73663;51.298;5.802;2024-01-30T09:39:29;16.80;55.30
83683;DHT22;73663;51.298;5.802;2024-01-30T09:44:30;16.80;55.30
83683;DHT22;73663;51.298;5.802;2024-01-30T09:49:34;16.90;55.30
83683;DHT22;73663;51.298;5.802;2024-01-30T09:54:35;17.00;55.40
83683;DHT22;73663;51.298;5.802;2024-01-30T09:59:36;17.00;55.40
83683;DHT22;73663;51.298;5.802;2024-01-30T10:04:37;17.10;55.40
83683;DHT22;73663;51.298;5.802;2024-01-30T10:09:37;17.20;55.40
83683;DHT22;73663;51.298;5.802;2024-01-30T10:14:42;17.20;55.40
83683;DHT22;73663;51.298;5.802;2024-01-30T10:19:43;17.20;55.40
83683;DHT22;73663;51.298;5.802;2024-01-30T10:24:43;17.20;55.40
83683;DHT22;73663;51.298;5.802;2024-01-30T10:29:48;17.20;55.40
83683;DHT22;73663;51.298;5.802;2024-01-30T10:34:49;17.30;55.40
83683;DHT22;73663;51.298;5.802;2024-01-30T10:39:50;17.40;55.40
83683;DHT22;73663;51.298;5.802;2024-01-30T10:45:08;17.40;55.50
83683;DHT22;73663;51.298;5.802;2024-01-30T10:50:09;17.50;55.50
83683;DHT22;73663;51.298;5.802;2024-01-30T10:55:11;17.60;55.50
83683;DHT22;73663;51.298;5.802;2024-01-30T11:00:13;17.70;55.50
83683;DHT22;73663;51.298;5.802;2024-01-30T11:05:23;17.70;55.50
83683;DHT22;73663;51.298;5.802;2024-01-30T11:10:25;17.70;55.50
83683;DHT22;73663;51.298;5.802;2024-01-30T11:15:26;17.80;55.50
83683;DHT22;73663;51.298;5.802;2024-01-30T11:20:30;17.80;55.60
83683;DHT22;73663;51.298;5.802;2024-01-30T11:25:32;17.90;55.50
83683;DHT22;73663;51.298;5.802;2024-01-30T11:30:33;17.90;55.50
83683;DHT22;73663;51.298;5.802;2024-01-30T11:35:35;17.90;55.50
83683;DHT22;73663;51.298;5.802;2024-01-30T11:40:38;17.90;55.50
83683;DHT22;73663;51.298;5.802;2024-01-30T11:45:38;17.90;55.60
83683;DHT22;73663;51.298;5.802;2024-01-30T11:50:40;18.00;55.60
83683;DHT22;73663;51.298;5.802;2024-01-30T11:55:50;18.00;55.50
83683;DHT22;73663;51.298;5.802;2024-01-30T12:00:55;18.00;55.60
83683;DHT22;73663;51.298;5.802;2024-01-30T12:05:56;18.00;55.50
83683;DHT22;73663;51.298;5.802;2024-01-30T12:10:58;18.00;55.50
83683;DHT22;73663;51.298;5.802;2024-01-30T12:16:01;18.10;55.50
83683;DHT22;73663;51.298;5.802;2024-01-30T12:21:02;18.10;55.50
83683;DHT22;73663;51.298;5.802;2024-01-30T12:26:03;18.20;55.50
83683;DHT22;73663;51.298;5.802;2024-01-30T12:31:07;18.10;55.40
83683;DHT22;73663;51.298;5.802;2024-01-30T12:36:09;18.00;55.40
83683;DHT22;73663;51.298;5.802;2024-01-30T12:41:10;17.90;55.40
83683;DHT22;73663;51.298;5.802;2024-01-30T12:46:11;17.80;55.40
83683;DHT22;73663;51.298;5.802;2024-01-30T12:51:11;17.60;55.40
83683;DHT22;73663;51.298;5.802;2024-01-30T12:56:12;17.60;55.50
83683;DHT22;73663;51.298;5.802;2024-01-30T13:01:13;17.50;55.50
83683;DHT22;73663;51.298;5.802;2024-01-30T13:06:13;17.50;55.40
83683;DHT22;73663;51.298;5.802;2024-01-30T13:11:14;17.40;55.30
83683;DHT22;73663;51.298;5.802;2024-01-30T13:16:14;17.40;55.10
83683;DHT22;73663;51.298;5.802;2024-01-30T13:21:15;17.20;55.00
83683;DHT22;73663;51.298;5.802;2024-01-30T13:26:16;17.20;54.80
83683;DHT22;73663;51.298;5.802;2024-01-30T13:31:16;17.20;54.70
83683;DHT22;73663;51.298;5.802;2024-01-30T13:36:18;17.40;54.70
83683;DHT22;73663;51.298;5.802;2024-01-30T13:41:19;17.80;54.70
83683;DHT22;73663;51.298;5.802;2024-01-30T13:46:21;18.20;54.10
83683;DHT22;73663;51.298;5.802;2024-01-30T13:51:21;18.20;54.00
83683;DHT22;73663;51.298;5.802;2024-01-30T13:56:22;18.60;54.00
83683;DHT22;73663;51.298;5.802;2024-01-30T14:01:23;18.80;53.60
83683;DHT22;73663;51.298;5.802;2024-01-30T14:06:24;18.60;53.10
83683;DHT22;73663;51.298;5.802;2024-01-30T14:11:25;18.20;52.80
83683;DHT22;73663;51.298;5.802;2024-01-30T14:16:25;17.80;52.90
83683;DHT22;73663;51.298;5.802;2024-01-30T14:21:26;17.50;52.90
83683;DHT22;73663;51.298;5.802;2024-01-30T14:26:26;17.20;53.10
83683;DHT22;73663;51.298;5.802;2024-01-30T14:31:27;17.10;53.00
83683;DHT22;73663;51.298;5.802;2024-01-30T14:36:28;17.00;53.10
83683;DHT22;73663;51.298;5.802;2024-01-30T14:41:29;17.00;53.10
83683;DHT22;73663;51.298;5.802;2024-01-30T14:46:30;16.90;52.90
83683;DHT22;73663;51.298;5.802;2024-01-30T14:51:30;16.80;52.80
83683;DHT22;73663;51.298;5.802;2024-01-30T14:56:31;16.70;52.70
83683;DHT22;73663;51.298;5.802;2024-01-30T15:01:33;16.60;52.50
83683;DHT22;73663;51.298;5.802;2024-01-30T15:06:33;16.40;52.50
83683;DHT22;73663;51.298;5.802;2024-01-30T15:11:34;16.40;52.50
83683;DHT22;73663;51.298;5.802;2024-01-30T15:16:36;16.40;52.50
83683;DHT22;73663;51.298;5.802;2024-01-30T15:21:36;16.30;52.40
83683;DHT22;73663;51.298;5.802;2024-01-30T15:26:37;16.20;52.40
83683;DHT22;73663;51.298;5.802;2024-01-30T15:31:38;16.10;52.40
83683;DHT22;73663;51.298;5.802;2024-01-30T15:36:39;16.00;52.40
83683;DHT22;73663;51.298;5.802;2024-01-30T15:41:40;15.90;52.50
83683;DHT22;73663;51.298;5.802;2024-01-30T15:46:41;15.80;52.50
83683;DHT22;73663;51.298;5.802;2024-01-30T15:51:41;15.70;52.60
83683;DHT22;73663;51.298;5.802;2024-01-30T15:56:42;15.60;52.70
83683;DHT22;73663;51.298;5.802;2024-01-30T16:01:43;15.40;52.90
83683;DHT22;73663;51.298;5.802;2024-01-30T16:06:49;15.20;53.10
83683;DHT22;73663;51.298;5.802;2024-01-30T16:11:49;15.10;53.10
83683;DHT22;73663;51.298;5.802;2024-01-30T16:16:50;15.00;53.10
83683;DHT22;73663;51.298;5.802;2024-01-30T16:21:51;14.90;53.20
83683;DHT22;73663;51.298;5.802;2024-01-30T16:26:52;14.90;53.30
83683;DHT22;73663;51.298;5.802;2024-01-30T16:31:52;14.80;53.20
83683;DHT22;73663;51.298;5.802;2024-01-30T16:36:53;14.70;53.30
83683;DHT22;73663;51.298;5.802;2024-01-30T16:41:53;14.70;53.40
83683;DHT22;73663;51.298;5.802;2024-01-30T16:46:54;14.60;53.40
83683;DHT22;73663;51.298;5.802;2024-01-30T16:51:54;14.60;53.40
83683;DHT22;73663;51.298;5.802;2024-01-30T16:56:55;14.50;53.50
83683;DHT22;73663;51.298;5.802;2024-01-30T17:01:56;14.50;53.50
83683;DHT22;73663;51.298;5.802;2024-01-30T17:06:56;14.50;53.50
83683;DHT22;73663;51.298;5.802;2024-01-30T17:11:59;14.40;53.60
83683;DHT22;73663;51.298;5.802;2024-01-30T17:17:00;14.30;53.60
83683;DHT22;73663;51.298;5.802;2024-01-30T17:22:02;14.30;53.70
83683;DHT22;73663;51.298;5.802;2024-01-30T17:27:03;14.30;53.70
83683;DHT22;73663;51.298;5.802;2024-01-30T17:32:04;14.30;53.80
83683;DHT22;73663;51.298;5.802;2024-01-30T17:37:05;14.20;53.90
83683;DHT22;73663;51.298;5.802;2024-01-30T17:42:06;14.20;53.90
83683;DHT22;73663;51.298;5.802;2024-01-30T17:47:06;14.10;53.80
83683;DHT22;73663;51.298;5.802;2024-01-30T17:52:07;14.10;53.90
83683;DHT22;73663;51.298;5.802;2024-01-30T17:57:08;14.00;53.90
83683;DHT22;73663;51.298;5.802;2024-01-30T18:02:09;14.00;54.00
83683;DHT22;73663;51.298;5.802;2024-01-30T18:07:09;14.00;54.00
83683;DHT22;73663;51.298;5.802;2024-01-30T18:12:11;13.90;54.00
83683;DHT22;73663;51.298;5.802;2024-01-30T18:17:13;13.90;54.20
83683;DHT22;73663;51.298;5.802;2024-01-30T18:22:13;13.90;54.20
83683;DHT22;73663;51.298;5.802;2024-01-30T18:27:14;13.90;54.20
83683;DHT22;73663;51.298;5.802;2024-01-30T18:32:14;13.90;54.20
83683;DHT22;73663;51.298;5.802;2024-01-30T18:37:15;13.90;54.30
83683;DHT22;73663;51.298;5.802;2024-01-30T18:42:15;13.90;54.40
83683;DHT22;73663;51.298;5.802;2024-01-30T18:47:18;13.80;54.50
83683;DHT22;73663;51.298;5.802;2024-01-30T18:52:19;13.70;54.70
83683;DHT22;73663;51.298;5.802;2024-01-30T18:57:19;13.60;54.70
83683;DHT22;73663;51.298;5.802;2024-01-30T19:02:21;13.60;54.70
83683;DHT22;73663;51.298;5.802;2024-01-30T19:07:21;13.60;54.70
83683;DHT22;73663;51.298;5.802;2024-01-30T19:12:22;13.60;54.80
83683;DHT22;73663;51.298;5.802;2024-01-30T19:17:22;13.60;54.70
83683;DHT22;73663;51.298;5.802;2024-01-30T19:22:24;13.60;54.70
83683;DHT22;73663;51.298;5.802;2024-01-30T19:27:25;13.60;54.70
83683;DHT22;73663;51.298;5.802;2024-01-30T19:32:25;13.60;54.70
83683;DHT22;73663;51.298;5.802;2024-01-30T19:37:26;13.60;54.70
83683;DHT22;73663;51.298;5.802;2024-01-30T19:42:26;13.60;54.70
83683;DHT22;73663;51.298;5.802;2024-01-30T19:47:27;13.60;54.70
83683;DHT22;73663;51.298;5.802;2024-01-30T19:52:27;13.50;54.80
83683;DHT22;73663;51.298;5.802;2024-01-30T19:57:28;13.50;54.80
83683;DHT22;73663;51.298;5.802;2024-01-30T20:02:29;13.50;54.80
83683;DHT22;73663;51.298;5.802;2024-01-30T20:07:29;13.50;54.80
83683;DHT22;73663;51.298;5.802;2024-01-30T20:12:30;13.50;55.00
83683;DHT22;73663;51.298;5.802;2024-01-30T20:17:37;13.40;55.00
83683;DHT22;73663;51.298;5.802;2024-01-30T20:22:45;13.40;55.10
83683;DHT22;73663;51.298;5.802;2024-01-30T20:27:47;13.30;55.00
83683;DHT22;73663;51.298;5.802;2024-01-30T20:32:48;13.30;55.10
83683;DHT22;73663;51.298;5.802;2024-01-30T20:37:49;13.30;55.10
83683;DHT22;73663;51.298;5.802;2024-01-30T20:42:51;13.30;55.10
83683;DHT22;73663;51.298;5.802;2024-01-30T20:47:52;13.30;55.20
83683;DHT22;73663;51.298;5.802;2024-01-30T20:52:52;13.30;55.20
83683;DHT22;73663;51.298;5.802;2024-01-30T20:57:53;13.30;55.20
83683;DHT22;73663;51.298;5.802;2024-01-30T21:02:54;13.30;55.20
83683;DHT22;73663;51.298;5.802;2024-01-30T21:07:54;13.30;55.20
83683;DHT22;73663;51.298;5.802;2024-01-30T21:12:55;13.30;55.20
83683;DHT22;73663;51.298;5.802;2024-01-30T21:17:55;13.30;55.20
83683;DHT22;73663;51.298;5.802;2024-01-30T21:22:56;13.30;55.20
83683;DHT22;73663;51.298;5.802;2024-01-30T21:27:56;13.30;55.30
83683;DHT22;73663;51.298;5.802;2024-01-30T21:32:57;13.20;55.30
83683;DHT22;73663;51.298;5.802;2024-01-30T21:37:58;13.20;55.40
83683;DHT22;73663;51.298;5.802;2024-01-30T21:42:58;13.10;55.40
83683;DHT22;73663;51.298;5.802;2024-01-30T21:47:59;13.10;55.40
83683;DHT22;73663;51.298;5.802;2024-01-30T21:52:59;13.10;55.50
83683;DHT22;73663;51.298;5.802;2024-01-30T21:58:00;13.10;55.50
83683;DHT22;73663;51.298;5.802;2024-01-30T22:03:01;13.10;55.50
83683;DHT22;73663;51.298;5.802;2024-01-30T22:08:01;13.10;55.50
83683;DHT22;73663;51.298;5.802;2024-01-30T22:13:02;13.10;55.60
83683;DHT22;73663;51.298;5.802;2024-01-30T22:18:03;13.10;55.60
83683;DHT22;73663;51.298;5.802;2024-01-30T22:23:04;13.10;55.70
83683;DHT22;73663;51.298;5.802;2024-01-30T22:28:04;13.00;55.70
83683;DHT22;73663;51.298;5.802;2024-01-30T22:33:05;13.00;55.80
83683;DHT22;73663;51.298;5.802;2024-01-30T22:38:07;13.00;55.70
83683;DHT22;73663;51.298;5.802;2024-01-30T22:43:09;13.00;55.70
83683;DHT22;73663;51.298;5.802;2024-01-30T22:48:10;13.00;55.80
83683;DHT22;73663;51.298;5.802;2024-01-30T22:53:11;13.00;55.80
83683;DHT22;73663;51.298;5.802;2024-01-30T22:58:11;13.00;55.80
83683;DHT22;73663;51.298;5.802;2024-01-30T23:03:13;12.90;55.80
83683;DHT22;73663;51.298;5.802;2024-01-30T23:08:14;12.90;55.80
83683;DHT22;73663;51.298;5.802;2024-01-30T23:13:14;12.90;55.80
83683;DHT22;73663;51.298;5.802;2024-01-30T23:18:15;12.90;55.90
83683;DHT22;73663;51.298;5.802;2024-01-30T23:23:15;12.90;55.90
83683;DHT22;73663;51.298;5.802;2024-01-30T23:28:16;12.90;55.90
83683;DHT22;73663;51.298;5.802;2024-01-30T23:33:16;12.90;55.90
83683;DHT22;73663;51.298;5.802;2024-01-30T23:38:17;12.90;56.00
83683;DHT22;73663;51.298;5.802;2024-01-30T23:43:18;12.80;56.00
83683;DHT22;73663;51.298;5.802;2024-01-30T23:48:19;12.80;56.00
83683;DHT22;73663;51.298;5.802;2024-01-30T23:53:19;12.90;56.00
83683;DHT22;73663;51.298;5.802;2024-01-30T23:58:20;12.90;56.00
